Time;durP1;ratioP1;P1;durP2;ratioP2;P2;SDS_P1;SDS_P2;PMS_P1;PMS_P2;Temp;Humidity;BMP_temperature;BMP_pressure;BME280_temperature;BME280_humidity;BME280_pressure;Samples;Min_cycle;Max_cycle;Signal;HPM_P1;HPM_P2
2022/10/11 00:00:29;;;;;;;5.10;3.53;;;;;;;14.83;nan;101073.72;5079208;28;20040;-67
2022/10/11 00:02:55;;;;;;;7.65;4.20;;;;;;;14.81;nan;101077.56;5088555;28;20028;-68
2022/10/11 00:05:20;;;;;;;7.55;3.95;;;;;;;14.79;nan;101077.72;5068801;28;20362;-68
2022/10/11 00:07:45;;;;;;;5.82;4.05;;;;;;;14.78;nan;101086.72;5095281;28;20028;-68
2022/10/11 00:10:10;;;;;;;5.00;3.55;;;;;;;14.78;nan;101086.72;5079597;28;20046;-67
2022/10/11 00:12:36;;;;;;;5.50;3.00;;;;;;;14.79;nan;101087.53;5084429;28;20036;-67
2022/10/11 00:15:05;;;;;;;3.92;3.08;;;;;;;14.79;nan;101084.88;5082188;28;20604;-68
2022/10/11 00:17:31;;;;;;;5.75;3.80;;;;;;;14.76;nan;101091.34;5085338;28;20454;-68
2022/10/11 00:19:56;;;;;;;4.80;3.40;;;;;;;14.77;nan;101085.03;5075867;28;20131;-68
2022/10/11 00:22:21;;;;;;;5.18;3.22;;;;;;;14.75;nan;101087.00;5083207;28;20071;-67
2022/10/11 00:24:47;;;;;;;3.70;2.63;;;;;;;14.75;nan;101089.69;5091355;28;20118;-67
2022/10/11 00:27:12;;;;;;;4.90;3.20;;;;;;;14.74;nan;101096.00;5067798;28;20040;-67
2022/10/11 00:29:37;;;;;;;5.63;3.33;;;;;;;14.72;nan;101089.19;5081544;28;20119;-67
2022/10/11 00:32:03;;;;;;;4.85;3.85;;;;;;;14.69;nan;101087.69;5080557;28;20116;-68
2022/10/11 00:34:28;;;;;;;6.03;4.15;;;;;;;14.65;nan;101097.00;5066930;28;20036;-67
2022/10/11 00:36:53;;;;;;;5.78;4.10;;;;;;;14.62;nan;101098.16;5067485;28;20059;-67
2022/10/11 00:39:19;;;;;;;5.32;3.97;;;;;;;14.59;nan;101098.50;5084872;28;20388;-67
2022/10/11 00:41:46;;;;;;;6.63;3.97;;;;;;;14.58;nan;101096.00;5083657;28;20048;-67
2022/10/11 00:44:20;;;;;;;5.97;4.10;;;;;;;14.56;nan;101096.19;5084023;28;20059;-67
2022/10/11 00:46:52;;;;;;;5.55;3.78;;;;;;;14.55;nan;101097.16;5083369;28;20454;-67
2022/10/11 00:49:30;;;;;;;6.53;4.15;;;;;;;14.53;nan;101101.78;5084730;28;20039;-69
2022/10/11 00:52:02;;;;;;;6.40;4.20;;;;;;;14.50;nan;101096.78;5078522;28;20443;-67
2022/10/11 00:54:33;;;;;;;8.15;5.13;;;;;;;14.49;nan;101096.94;5084950;28;20403;-68
2022/10/11 00:57:04;;;;;;;10.07;6.15;;;;;;;14.49;nan;101105.78;5077236;28;20119;-67
2022/10/11 00:59:35;;;;;;;8.23;5.10;;;;;;;14.50;nan;101099.44;5085796;28;20044;-67
2022/10/11 01:02:01;;;;;;;6.60;4.45;;;;;;;14.48;nan;101098.78;5081790;28;20079;-68
2022/10/11 01:04:27;;;;;;;7.15;4.60;;;;;;;14.48;nan;101100.59;5086150;28;20083;-67
2022/10/11 01:06:54;;;;;;;8.73;5.63;;;;;;;14.47;nan;101102.44;5083409;28;20044;-68
2022/10/11 01:09:21;;;;;;;9.77;6.07;;;;;;;14.46;nan;101106.06;5083903;28;20040;-67
2022/10/11 01:11:48;;;;;;;10.70;7.10;;;;;;;14.44;nan;101110.72;5080149;28;20396;-67
2022/10/11 01:14:52;;;;;;;14.02;8.40;;;;;;;14.40;nan;101101.44;5084377;28;20741;-68
2022/10/11 01:17:43;;;;;;;13.13;7.63;;;;;;;14.32;nan;101099.56;5082809;28;20545;-68
2022/10/11 01:20:26;;;;;;;13.15;7.45;;;;;;;14.30;nan;101103.38;5065257;28;20057;-67
2022/10/11 01:23:29;;;;;;;12.88;8.02;;;;;;;14.23;nan;101095.22;5086388;28;20424;-67
2022/10/11 01:26:25;;;;;;;11.13;6.55;;;;;;;14.25;nan;101106.50;5080549;28;20125;-68
2022/10/11 01:29:24;;;;;;;14.35;8.00;;;;;;;14.20;nan;101104.34;5082701;28;20094;-67
2022/10/11 01:31:57;;;;;;;10.65;7.18;;;;;;;14.16;nan;101102.19;5064877;28;20042;-68
2022/10/11 01:34:30;;;;;;;12.65;7.97;;;;;;;14.13;nan;101100.66;5078563;28;20584;-67
2022/10/11 01:37:18;;;;;;;12.88;7.68;;;;;;;14.11;nan;101102.66;5079140;28;20060;-67
2022/10/11 01:40:18;;;;;;;11.25;6.53;;;;;;;14.10;nan;101106.31;5076541;28;20112;-67
2022/10/11 01:42:45;;;;;;;11.35;7.22;;;;;;;14.08;nan;101108.28;5065258;28;20085;-67
2022/10/11 01:45:17;;;;;;;12.25;7.85;;;;;;;14.07;nan;101103.16;5082285;28;20035;-68
2022/10/11 01:47:44;;;;;;;13.90;7.50;;;;;;;14.06;nan;101106.78;5084095;28;20392;-67
2022/10/11 01:50:31;;;;;;;11.82;7.22;;;;;;;14.02;nan;101114.25;5086121;28;20040;-67
2022/10/11 01:53:10;;;;;;;11.27;7.68;;;;;;;13.99;nan;101112.75;5080597;28;20059;-67
2022/10/11 01:55:59;;;;;;;13.57;8.13;;;;;;;13.95;nan;101114.06;5080592;28;20392;-67
2022/10/11 01:58:41;;;;;;;11.35;8.30;;;;;;;13.93;nan;101110.72;5079757;28;20122;-67
2022/10/11 02:01:06;;;;;;;14.30;8.93;;;;;;;13.87;nan;101111.38;5083253;28;20047;-67
2022/10/11 02:03:48;;;;;;;15.53;8.77;;;;;;;13.85;nan;101104.53;5092632;28;20509;-67
2022/10/11 02:06:25;;;;;;;10.65;8.00;;;;;;;13.83;nan;101120.66;5092355;28;20380;-67
2022/10/11 02:09:11;;;;;;;16.75;8.77;;;;;;;13.81;nan;101119.97;5084752;28;20264;-66
2022/10/11 02:11:37;;;;;;;14.25;8.93;;;;;;;13.79;nan;101116.63;5085560;28;20028;-67
2022/10/11 02:14:14;;;;;;;11.82;7.55;;;;;;;13.79;nan;101127.28;5090409;28;20093;-67
2022/10/11 02:16:52;;;;;;;12.65;8.10;;;;;;;13.76;nan;101128.41;5086010;28;20028;-67
2022/10/11 02:19:23;;;;;;;13.57;8.00;;;;;;;13.77;nan;101134.56;5086680;28;20040;-67
2022/10/11 02:21:53;;;;;;;11.88;7.60;;;;;;;13.77;nan;101142.53;5088120;28;20391;-67
2022/10/11 02:24:33;;;;;;;13.23;8.05;;;;;;;13.74;nan;101129.56;5087139;28;20496;-67
2022/10/11 02:27:02;;;;;;;18.92;10.85;;;;;;;13.67;nan;101142.66;5086090;28;20435;-67
2022/10/11 02:29:31;;;;;;;15.52;9.88;;;;;;;13.66;nan;101135.69;5068598;28;20032;-67
2022/10/11 02:31:59;;;;;;;23.10;12.27;;;;;;;13.61;nan;101137.97;5086087;28;20028;-68
2022/10/11 02:34:35;;;;;;;19.92;12.00;;;;;;;13.52;nan;101138.91;5080311;28;20043;-68
2022/10/11 02:37:08;;;;;;;19.30;11.73;;;;;;;13.53;nan;101135.25;5081665;28;20562;-68
2022/10/11 02:39:44;;;;;;;19.63;12.32;;;;;;;13.52;nan;101141.56;5084475;28;20060;-67
2022/10/11 02:42:16;;;;;;;21.25;12.40;;;;;;;13.50;nan;101133.75;5082077;28;20044;-68
2022/10/11 02:44:46;;;;;;;18.08;11.82;;;;;;;13.47;nan;101139.38;5070135;28;20032;-67
2022/10/11 02:47:12;;;;;;;23.13;13.65;;;;;;;13.45;nan;101138.69;5078989;28;20051;-67
2022/10/11 02:49:37;;;;;;;21.95;13.80;;;;;;;13.43;nan;101139.84;5087449;28;20063;-67
2022/10/11 02:52:05;;;;;;;22.73;14.30;;;;;;;13.39;nan;101141.97;5068967;28;20036;-67
2022/10/11 02:54:30;;;;;;;17.88;12.02;;;;;;;13.39;nan;101144.63;5069234;28;20043;-67
2022/10/11 02:56:56;;;;;;;21.17;13.13;;;;;;;13.37;nan;101152.75;5067977;28;20435;-68
2022/10/11 02:59:21;;;;;;;20.25;13.65;;;;;;;13.34;nan;101152.22;5086961;28;20093;-67
2022/10/11 03:01:46;;;;;;;16.55;11.68;;;;;;;13.32;nan;101151.53;5080842;28;20082;-67
2022/10/11 03:04:12;;;;;;;22.15;13.43;;;;;;;13.30;nan;101154.38;5086248;28;20036;-68
2022/10/11 03:06:37;;;;;;;19.98;13.18;;;;;;;13.32;nan;101162.16;5069302;28;20081;-68
2022/10/11 03:09:02;;;;;;;23.95;14.73;;;;;;;13.24;nan;101170.03;5065125;28;20401;-69
2022/10/11 03:11:28;;;;;;;22.02;14.27;;;;;;;13.24;nan;101170.03;5066433;28;20144;-67
2022/10/11 03:13:53;;;;;;;21.08;13.95;;;;;;;13.22;nan;101170.19;5084124;28;20031;-68
2022/10/11 03:16:18;;;;;;;21.90;14.80;;;;;;;13.20;nan;101164.19;5085335;28;20508;-68
2022/10/11 03:18:43;;;;;;;22.27;14.70;;;;;;;13.15;nan;101163.81;5085107;28;20042;-68
2022/10/11 03:21:09;;;;;;;19.77;14.00;;;;;;;13.10;nan;101166.09;5071865;28;20127;-68
2022/10/11 03:23:34;;;;;;;19.40;13.07;;;;;;;13.07;nan;101163.75;5087783;28;20507;-67
2022/10/11 03:25:59;;;;;;;18.60;12.55;;;;;;;13.03;nan;101165.03;5086928;28;20492;-68
2022/10/11 03:28:25;;;;;;;22.48;14.35;;;;;;;13.01;nan;101173.16;5065047;28;20036;-67
2022/10/11 03:30:50;;;;;;;;;;;;;;;12.93;nan;101171.25;5086798;28;20032;-67
2022/10/11 03:33:16;;;;;;;20.52;14.02;;;;;;;12.87;nan;101171.03;5083720;28;19916;-67
2022/10/11 03:35:46;;;;;;;23.27;13.85;;;;;;;12.83;nan;101167.84;5086960;28;20070;-68
2022/10/11 03:38:13;;;;;;;21.85;14.05;;;;;;;12.77;nan;101178.22;5079458;28;20032;-68
2022/10/11 03:40:40;;;;;;;21.63;13.35;;;;;;;12.72;nan;101181.31;5073074;28;20032;-68
2022/10/11 03:43:05;;;;;;;22.45;13.70;;;;;;;12.69;nan;101182.47;5085043;28;20074;-68
2022/10/11 03:45:30;;;;;;;;;;;;;;;12.64;nan;101176.78;5086336;28;20044;-66
2022/10/11 03:47:56;;;;;;;19.57;12.20;;;;;;;12.60;nan;101186.00;5087180;28;19915;-67
2022/10/11 03:50:21;;;;;;;15.93;11.23;;;;;;;12.53;nan;101185.75;5083415;28;20032;-67
2022/10/11 03:52:46;;;;;;;19.58;12.65;;;;;;;12.50;nan;101193.19;5086731;28;20062;-67
2022/10/11 03:55:11;;;;;;;17.55;10.90;;;;;;;12.45;nan;101192.81;5082560;28;20048;-67
2022/10/11 03:57:37;;;;;;;15.05;10.63;;;;;;;12.42;nan;101191.28;5088387;28;20032;-67
2022/10/11 04:00:03;;;;;;;;;;;;;;;12.39;nan;101191.56;5083880;28;20398;-67
2022/10/11 04:02:28;;;;;;;14.13;9.10;;;;;;;12.38;nan;101187.25;5081441;28;19941;-68
2022/10/11 04:04:53;;;;;;;12.98;8.45;;;;;;;12.35;nan;101194.66;5084294;28;20538;-67
2022/10/11 04:07:18;;;;;;;9.30;6.50;;;;;;;12.46;nan;101192.63;5072518;28;20414;-67
2022/10/11 04:09:44;;;;;;;6.53;5.47;;;;;;;12.49;nan;101192.38;5085900;28;20414;-67
2022/10/11 04:12:09;;;;;;;6.87;5.60;;;;;;;12.45;nan;101201.59;5086082;28;20410;-68
2022/10/11 04:14:35;;;;;;;7.93;5.55;;;;;;;12.44;nan;101202.59;5074797;28;20487;-67
2022/10/11 04:17:00;;;;;;;7.40;5.13;;;;;;;12.28;nan;101197.06;5086834;28;20069;-67
2022/10/11 04:19:25;;;;;;;9.57;5.50;;;;;;;12.24;nan;101206.31;5082228;28;20221;-67
2022/10/11 04:21:51;;;;;;;8.40;4.68;;;;;;;12.21;nan;101201.28;5087669;28;20282;-67
2022/10/11 04:24:16;;;;;;;5.90;4.32;;;;;;;12.18;nan;101198.91;5092783;28;20110;-67
2022/10/11 04:26:41;;;;;;;14.63;6.97;;;;;;;12.02;nan;101199.56;5084809;28;20489;-67
2022/10/11 04:29:06;;;;;;;11.05;5.57;;;;;;;12.02;nan;101210.16;5087216;28;20354;-67
2022/10/11 04:31:32;;;;;;;7.05;4.43;;;;;;;11.98;nan;101220.19;5079674;28;20032;-67
2022/10/11 04:33:57;;;;;;;9.35;5.00;;;;;;;11.93;nan;101217.13;5084816;28;20515;-66
2022/10/11 04:36:22;;;;;;;8.43;3.92;;;;;;;11.93;nan;101226.91;5083206;28;20136;-67
2022/10/11 04:38:48;;;;;;;7.82;3.80;;;;;;;11.92;nan;101231.38;5084529;28;20042;-67
2022/10/11 04:41:14;;;;;;;6.50;3.50;;;;;;;11.85;nan;101233.72;5080091;28;20082;-67
2022/10/11 04:43:40;;;;;;;9.43;4.28;;;;;;;11.75;nan;101235.56;5084865;28;20032;-67
2022/10/11 04:46:06;;;;;;;9.05;3.85;;;;;;;11.72;nan;101237.66;5083413;28;20032;-67
2022/10/11 04:48:31;;;;;;;5.95;3.47;;;;;;;11.65;nan;101238.22;5085098;28;20255;-67
2022/10/11 04:50:56;;;;;;;9.10;4.00;;;;;;;11.54;nan;101232.25;5079056;28;20037;-67
2022/10/11 04:53:22;;;;;;;6.70;3.42;;;;;;;11.51;nan;101245.75;5085230;28;20044;-67
2022/10/11 04:55:56;;;;;;;7.35;3.40;;;;;;;11.47;nan;101248.69;5084181;28;20032;-66
2022/10/11 04:58:21;;;;;;;5.28;3.10;;;;;;;11.43;nan;101254.41;5082733;28;20036;-67
2022/10/11 05:00:47;;;;;;;8.13;3.75;;;;;;;11.35;nan;101254.28;5079730;28;20071;-67
2022/10/11 05:03:12;;;;;;;7.18;3.67;;;;;;;11.23;nan;101254.41;5081871;28;20072;-67
2022/10/11 05:05:37;;;;;;;6.72;3.70;;;;;;;11.16;nan;101265.69;5088931;28;20122;-67
2022/10/11 05:08:02;;;;;;;8.55;3.33;;;;;;;11.13;nan;101260.66;5078340;28;20043;-68
2022/10/11 05:10:28;;;;;;;6.68;3.20;;;;;;;11.09;nan;101261.91;5084293;28;20101;-66
2022/10/11 05:12:53;;;;;;;7.47;3.08;;;;;;;11.10;nan;101264.41;5083115;28;20036;-67
2022/10/11 05:15:18;;;;;;;6.97;3.17;;;;;;;11.06;nan;101268.31;5095530;28;20491;-66
2022/10/11 05:17:44;;;;;;;9.40;3.17;;;;;;;11.02;nan;101277.50;5077903;28;20283;-66
2022/10/11 05:20:09;;;;;;;6.78;3.40;;;;;;;10.96;nan;101285.97;5066575;28;20448;-67
2022/10/11 05:22:35;;;;;;;8.10;3.00;;;;;;;10.90;nan;101282.06;5063711;28;20044;-66
2022/10/11 05:25:00;;;;;;;7.30;3.05;;;;;;;10.85;nan;101286.94;5084897;28;20295;-66
2022/10/11 05:27:25;;;;;;;7.78;2.92;;;;;;;10.80;nan;101292.63;5079063;28;20291;-66
2022/10/11 05:29:50;;;;;;;5.53;2.27;;;;;;;10.77;nan;101287.59;5084533;28;20119;-66
2022/10/11 05:32:16;;;;;;;6.72;2.53;;;;;;;10.73;nan;101294.13;5087735;28;20286;-66
2022/10/11 05:34:41;;;;;;;7.85;2.88;;;;;;;10.68;nan;101298.13;5083342;28;20039;-67
2022/10/11 05:37:06;;;;;;;7.95;2.70;;;;;;;10.63;nan;101296.75;5087563;28;20096;-68
2022/10/11 05:39:31;;;;;;;10.25;3.05;;;;;;;10.60;nan;101299.63;5086156;28;20028;-67
2022/10/11 05:41:57;;;;;;;10.70;3.53;;;;;;;10.53;nan;101305.59;5082955;28;20032;-67
2022/10/11 05:44:22;;;;;;;9.13;3.00;;;;;;;10.43;nan;101307.34;5086732;28;20033;-67
2022/10/11 05:46:47;;;;;;;7.57;2.60;;;;;;;10.37;nan;101314.84;5068628;28;20040;-67
2022/10/11 05:49:13;;;;;;;6.25;2.53;;;;;;;10.34;nan;101316.91;5082670;28;20059;-67
2022/10/11 05:51:38;;;;;;;;;;;;;;;10.32;nan;101313.56;5082475;28;20127;-67
2022/10/11 05:54:03;;;;;;;;;;;;;;;10.29;nan;101319.94;5085032;28;19932;-66
2022/10/11 05:56:28;;;;;;;;;;;;;;;10.24;nan;101321.28;5080394;28;19924;-66
2022/10/11 05:58:54;;;;;;;;;;;;;;;10.25;nan;101328.22;5078976;28;19916;-67
2022/10/11 06:01:20;;;;;;;;;;;;;;;10.22;nan;101324.03;5078844;28;19916;-67
2022/10/11 06:03:46;;;;;;;12.40;3.75;;;;;;;10.20;nan;101328.59;5087581;28;19924;-67
2022/10/11 06:06:11;;;;;;;6.20;2.70;;;;;;;10.38;nan;101337.66;5082953;28;20486;-68
2022/10/11 06:08:37;;;;;;;7.17;3.80;;;;;;;10.51;nan;101331.31;5078383;28;20398;-68
2022/10/11 06:11:10;;;;;;;7.30;3.00;;;;;;;10.57;nan;101346.69;5087666;28;20398;-68
2022/10/11 06:13:36;;;;;;;;;;;;;;;10.57;nan;101346.69;5091033;28;20048;-68
2022/10/11 06:16:05;;;;;;;;;;;;;;;10.54;nan;101342.50;5074876;28;19948;-68
2022/10/11 06:18:30;;;;;;;;;;;;;;;10.56;nan;101351.13;5074041;28;19931;-68
2022/10/11 06:20:56;;;;;;;;;;;;;;;10.61;nan;101346.28;5078675;28;20296;-68
2022/10/11 06:23:22;;;;;;;7.57;2.60;;;;;;;10.66;nan;101348.53;5095768;28;19974;-69
2022/10/11 06:25:57;;;;;;;6.15;2.97;;;;;;;10.74;nan;101355.81;5084495;28;20056;-68
2022/10/11 06:28:22;;;;;;;11.55;2.78;;;;;;;10.76;nan;101360.00;5069435;28;20036;-68
2022/10/11 06:30:48;;;;;;;8.05;3.05;;;;;;;10.78;nan;101357.22;5088664;28;20463;-69
2022/10/11 06:33:13;;;;;;;12.32;3.35;;;;;;;10.76;nan;101360.00;5082649;28;20044;-68
2022/10/11 06:35:38;;;;;;;9.03;3.27;;;;;;;10.79;nan;101369.47;5089071;28;20043;-68
2022/10/11 06:38:04;;;;;;;10.07;2.70;;;;;;;10.83;nan;101362.94;5082108;28;20279;-69
2022/10/11 06:40:29;;;;;;;8.18;2.88;;;;;;;10.89;nan;101366.84;5074186;28;20071;-68
2022/10/11 06:42:54;;;;;;;7.95;3.25;;;;;;;10.91;nan;101371.03;5087247;28;20040;-68
2022/10/11 06:45:20;;;;;;;10.00;2.63;;;;;;;10.94;nan;101372.59;5081858;28;20443;-68
2022/10/11 06:47:45;;;;;;;9.52;3.10;;;;;;;10.90;nan;101376.50;5088628;28;20040;-68
2022/10/11 06:50:10;;;;;;;9.55;2.85;;;;;;;10.91;nan;101372.84;5079846;28;20505;-68
2022/10/11 06:52:36;;;;;;;6.45;2.50;;;;;;;10.93;nan;101376.22;5081349;28;20028;-68
2022/10/11 06:55:01;;;;;;;8.40;2.60;;;;;;;10.96;nan;101378.59;5069701;28;20487;-68
2022/10/11 06:57:27;;;;;;;9.43;3.00;;;;;;;10.97;nan;101378.47;5081178;28;20540;-68
2022/10/11 06:59:52;;;;;;;6.38;2.58;;;;;;;11.05;nan;101377.78;5071365;28;20035;-68
2022/10/11 07:02:17;;;;;;;11.40;3.10;;;;;;;11.13;nan;101382.41;5081535;28;20036;-68
2022/10/11 07:04:42;;;;;;;12.73;4.15;;;;;;;11.12;nan;101386.88;5091226;28;20024;-68
2022/10/11 07:07:08;;;;;;;10.95;3.92;;;;;;;11.19;nan;101390.66;5101300;28;20040;-68
2022/10/11 07:09:33;;;;;;;10.65;3.70;;;;;;;11.24;nan;101393.72;5088601;28;20403;-68
2022/10/11 07:11:58;;;;;;;11.52;3.97;;;;;;;11.25;nan;101408.66;5071418;28;20036;-68
2022/10/11 07:14:24;;;;;;;11.00;3.70;;;;;;;11.25;nan;101403.38;5070091;28;20040;-68
2022/10/11 07:16:49;;;;;;;9.63;3.38;;;;;;;11.24;nan;101406.97;5070406;28;20043;-68
2022/10/11 07:19:14;;;;;;;9.27;3.03;;;;;;;11.15;nan;101396.34;5070316;28;20401;-68
2022/10/11 07:21:40;;;;;;;10.20;2.67;;;;;;;11.21;nan;101409.91;5086423;28;20028;-68
2022/10/11 07:24:05;;;;;;;7.05;2.20;;;;;;;11.33;nan;101410.63;5095572;28;20047;-67
2022/10/11 07:26:32;;;;;;;6.63;2.20;;;;;;;11.42;nan;101409.00;5086637;28;20229;-67
2022/10/11 07:28:57;;;;;;;6.57;2.55;;;;;;;11.54;nan;101410.53;5069939;28;20032;-67
2022/10/11 07:31:24;;;;;;;6.68;2.10;;;;;;;11.63;nan;101419.47;5069395;28;20036;-68
2022/10/11 07:33:49;;;;;;;6.63;2.42;;;;;;;11.67;nan;101421.72;5068149;28;20088;-68
2022/10/11 07:36:15;;;;;;;8.95;2.40;;;;;;;11.62;nan;101423.94;5082317;28;20275;-68
2022/10/11 07:38:42;;;;;;;10.80;2.47;;;;;;;11.57;nan;101428.81;5073553;28;20574;-69
2022/10/11 07:41:09;;;;;;;9.52;2.38;;;;;;;11.60;nan;101427.69;5070141;28;20038;-68
2022/10/11 07:43:35;;;;;;;6.68;1.80;;;;;;;11.64;nan;101418.50;5087651;28;20032;-68
2022/10/11 07:46:02;;;;;;;7.80;2.40;;;;;;;11.66;nan;101430.66;5070203;28;20052;-68
2022/10/11 07:48:31;;;;;;;8.65;2.42;;;;;;;11.60;nan;101425.03;5086948;28;20036;-69
2022/10/11 07:51:24;;;;;;;8.93;2.38;;;;;;;11.64;nan;101429.94;5087132;28;20101;-68
2022/10/11 07:53:54;;;;;;;6.65;2.25;;;;;;;11.53;nan;101427.41;5088016;28;20123;-69
2022/10/11 07:56:27;;;;;;;6.60;2.30;;;;;;;11.53;nan;101432.69;5088194;28;20455;-69
2022/10/11 07:58:55;;;;;;;8.77;2.55;;;;;;;11.58;nan;101433.13;5066524;28;20036;-69
2022/10/11 08:01:20;;;;;;;5.65;2.28;;;;;;;11.64;nan;101435.25;5069587;28;20102;-69
2022/10/11 08:03:47;;;;;;;8.07;2.40;;;;;;;11.80;nan;101437.38;5066986;28;20052;-69
2022/10/11 08:06:18;;;;;;;7.28;2.30;;;;;;;11.91;nan;101433.78;5093564;28;20076;-69
2022/10/11 08:08:43;;;;;;;6.80;2.08;;;;;;;12.00;nan;101443.53;5095204;28;20039;-69
2022/10/11 08:11:09;;;;;;;8.98;2.25;;;;;;;12.13;nan;101439.78;5088204;28;20040;-69
2022/10/11 08:13:34;;;;;;;9.32;2.67;;;;;;;12.26;nan;101437.69;5088334;28;20531;-69
2022/10/11 08:16:00;;;;;;;9.25;2.40;;;;;;;12.60;nan;101448.66;5070144;28;20039;-69
2022/10/11 08:18:25;;;;;;;7.68;2.40;;;;;;;12.85;nan;101446.41;5087088;28;20123;-69
2022/10/11 08:20:51;;;;;;;7.05;2.50;;;;;;;12.87;nan;101445.28;5069841;28;20024;-69
2022/10/11 08:23:17;;;;;;;7.97;2.92;;;;;;;13.29;nan;101447.50;5072996;28;20031;-69
2022/10/11 08:25:44;;;;;;;;;;;;;;;13.73;nan;101453.03;5088743;28;20134;-69
2022/10/11 08:28:16;;;;;;;8.23;2.38;;;;;;;13.97;nan;101448.94;5086690;28;19919;-69
2022/10/11 08:30:52;;;;;;;8.50;2.70;;;;;;;14.21;nan;101462.47;5088035;28;20415;-69
2022/10/11 08:33:19;;;;;;;7.30;2.92;;;;;;;14.33;nan;101460.41;5087921;28;20111;-69
2022/10/11 08:35:45;;;;;;;6.97;2.60;;;;;;;14.33;nan;101464.91;5087860;28;20031;-69
2022/10/11 08:38:11;;;;;;;8.23;2.80;;;;;;;14.41;nan;101456.97;5051990;28;20024;-69
2022/10/11 08:40:36;;;;;;;8.02;2.45;;;;;;;14.71;nan;101460.22;5069748;28;20035;-69
2022/10/11 08:43:05;;;;;;;8.57;2.55;;;;;;;14.92;nan;101462.50;5072035;28;20040;-69
2022/10/11 08:45:51;;;;;;;4.13;1.98;;;;;;;15.25;nan;101460.84;5065995;28;20039;-69
2022/10/11 08:48:29;;;;;;;8.30;2.70;;;;;;;15.46;nan;101450.63;5077310;28;20564;-69
2022/10/11 08:50:54;;;;;;;5.75;2.10;;;;;;;16.83;nan;101459.13;5087692;28;20032;-70
2022/10/11 08:53:32;;;;;;;6.45;2.30;;;;;;;17.72;nan;101466.00;5069844;28;20036;-69
2022/10/11 08:55:57;;;;;;;6.18;2.00;;;;;;;17.94;nan;101458.19;5069676;28;20052;-70
2022/10/11 08:58:36;;;;;;;5.30;2.13;;;;;;;17.35;nan;101463.97;5083985;28;20083;-69
2022/10/11 09:01:01;;;;;;;6.88;2.05;;;;;;;17.37;nan;101467.31;5082261;28;20043;-69
2022/10/11 09:03:40;;;;;;;6.13;2.10;;;;;;;17.32;nan;101464.34;5067608;28;20060;-70
2022/10/11 09:06:16;;;;;;;5.45;2.03;;;;;;;16.98;nan;101460.94;5092488;28;20036;-69
2022/10/11 09:09:01;;;;;;;7.63;2.42;;;;;;;16.49;nan;101466.34;5089570;28;20081;-69
2022/10/11 09:11:54;;;;;;;6.55;2.20;;;;;;;16.37;nan;101462.31;5077670;28;20399;-69
2022/10/11 09:14:31;;;;;;;6.00;2.33;;;;;;;16.17;nan;101464.47;5090144;28;20374;-69
2022/10/11 09:16:59;;;;;;;8.68;2.75;;;;;;;16.58;nan;101460.97;5084741;28;20036;-70
2022/10/11 09:19:42;;;;;;;4.75;1.90;;;;;;;17.77;nan;101454.75;5071876;28;20044;-68
2022/10/11 09:22:27;;;;;;;5.63;2.03;;;;;;;18.79;nan;101455.34;5092122;28;20463;-69
2022/10/11 09:25:17;;;;;;;5.57;2.00;;;;;;;19.45;nan;101459.94;5095899;28;20449;-68
2022/10/11 09:28:00;;;;;;;5.18;1.88;;;;;;;18.98;nan;101461.19;5080482;28;20429;-69
2022/10/11 09:30:26;;;;;;;5.45;2.15;;;;;;;18.52;nan;101461.25;5090137;28;20040;-68
2022/10/11 09:33:13;;;;;;;5.93;2.17;;;;;;;18.15;nan;101463.72;5091112;28;20481;-69
2022/10/11 09:35:44;;;;;;;5.25;1.90;;;;;;;17.89;nan;101458.72;5079319;28;20107;-68
2022/10/11 09:38:12;;;;;;;3.92;1.58;;;;;;;17.79;nan;101463.44;5077695;28;20032;-69
2022/10/11 09:40:57;;;;;;;5.43;1.90;;;;;;;17.29;nan;101459.34;5080563;28;20033;-68
2022/10/11 09:43:23;;;;;;;4.63;1.90;;;;;;;17.08;nan;101459.91;5087244;28;20028;-68
2022/10/11 09:45:48;;;;;;;6.38;2.80;;;;;;;17.12;nan;101461.25;5069500;28;20039;-68
2022/10/11 09:48:18;;;;;;;7.32;4.50;;;;;;;17.02;nan;101447.22;5081721;28;20444;-68
2022/10/11 09:50:45;;;;;;;5.93;2.50;;;;;;;16.88;nan;101448.78;5077828;28;20378;-69
2022/10/11 09:53:10;;;;;;;7.60;2.38;;;;;;;17.08;nan;101451.91;5071435;28;20063;-68
2022/10/11 09:55:42;;;;;;;7.25;2.40;;;;;;;17.66;nan;101444.47;5078518;28;20049;-68
2022/10/11 09:58:31;;;;;;;6.53;2.50;;;;;;;18.44;nan;101446.91;5061105;28;20032;-69
2022/10/11 10:01:04;;;;;;;4.90;2.10;;;;;;;18.76;nan;101450.34;5084881;28;20032;-68
2022/10/11 10:03:41;;;;;;;5.57;2.10;;;;;;;18.42;nan;101451.66;5071849;28;20036;-68
2022/10/11 10:06:14;;;;;;;8.65;2.15;;;;;;;18.55;nan;101448.34;5098166;28;20039;-69
2022/10/11 10:08:41;;;;;;;4.90;1.77;;;;;;;19.67;nan;101442.06;5081745;28;20028;-68
2022/10/11 10:11:07;;;;;;;3.55;1.63;;;;;;;20.78;nan;101447.84;5089538;28;20043;-68
2022/10/11 10:13:42;;;;;;;4.85;1.67;;;;;;;21.42;nan;101444.06;5071908;28;20036;-68
2022/10/11 10:16:23;;;;;;;3.92;1.80;;;;;;;21.39;nan;101445.31;5088514;28;20086;-68
2022/10/11 10:18:54;;;;;;;3.45;1.70;;;;;;;21.62;nan;101441.47;5088584;28;20028;-69
2022/10/11 10:21:31;;;;;;;3.90;2.28;;;;;;;22.88;nan;101448.78;5070612;28;20020;-69
2022/10/11 10:24:03;;;;;;;7.20;2.33;;;;;;;23.52;nan;101437.16;5077623;28;20135;-68
2022/10/11 10:26:30;;;;;;;3.85;2.00;;;;;;;24.32;nan;101435.84;5088239;28;20439;-69
2022/10/11 10:29:01;;;;;;;4.57;1.83;;;;;;;24.65;nan;101441.00;5080759;28;20094;-69
2022/10/11 10:31:34;;;;;;;3.78;1.80;;;;;;;24.83;nan;101439.34;5086310;28;20180;-68
2022/10/11 10:34:00;;;;;;;4.55;1.63;;;;;;;25.34;nan;101435.47;5082645;28;20147;-69
2022/10/11 10:36:31;;;;;;;5.65;2.28;;;;;;;25.54;nan;101436.03;5085847;28;20052;-69
2022/10/11 10:39:23;;;;;;;5.35;2.03;;;;;;;26.06;nan;101439.03;5083723;28;20065;-68
2022/10/11 10:41:48;;;;;;;3.17;1.67;;;;;;;26.56;nan;101440.53;5068055;28;20401;-68
2022/10/11 10:44:14;;;;;;;6.32;1.92;;;;;;;26.93;nan;101440.25;5087397;28;20040;-69
2022/10/11 10:46:48;;;;;;;4.32;1.70;;;;;;;27.67;nan;101435.00;5062304;28;20294;-68
2022/10/11 10:50:06;;;;;;;4.22;1.60;;;;;;;27.74;nan;101441.09;5086546;28;20036;-69
2022/10/11 10:52:51;;;;;;;5.03;1.70;;;;;;;27.51;nan;101435.78;5069933;28;20035;-69
2022/10/11 10:55:34;;;;;;;6.00;1.35;;;;;;;27.98;nan;101427.38;5087902;28;20059;-69
2022/10/11 10:58:17;;;;;;;5.32;1.52;;;;;;;28.58;nan;101432.19;5082678;28;20503;-70
2022/10/11 11:00:49;;;;;;;5.47;1.70;;;;;;;28.53;nan;101431.25;5088414;28;20040;-69
2022/10/11 11:03:26;;;;;;;5.22;1.52;;;;;;;28.21;nan;101420.16;5067141;28;20119;-68
2022/10/11 11:06:05;;;;;;;4.20;1.40;;;;;;;29.09;nan;101423.06;5085186;28;20500;-69
2022/10/11 11:08:42;;;;;;;5.95;1.48;;;;;;;29.01;nan;101427.03;5083184;28;20093;-69
2022/10/11 11:11:42;;;;;;;5.45;1.50;;;;;;;28.32;nan;101411.91;5080371;28;20028;-69
2022/10/11 11:14:13;;;;;;;3.95;1.52;;;;;;;28.45;nan;101412.63;5085867;28;20464;-69
2022/10/11 11:16:54;;;;;;;4.97;1.45;;;;;;;28.00;nan;101417.09;5085084;28;20037;-68
2022/10/11 11:19:43;;;;;;;3.58;1.33;;;;;;;27.98;nan;101413.78;5078304;28;20124;-68
2022/10/11 11:22:28;;;;;;;3.95;1.50;;;;;;;27.02;nan;101408.16;5087334;28;20036;-69
2022/10/11 11:25:26;;;;;;;6.15;2.20;;;;;;;25.24;nan;101406.22;5064602;28;20028;-69
2022/10/11 11:28:13;;;;;;;3.63;1.38;;;;;;;24.17;nan;101398.34;5087333;28;20655;-69
2022/10/11 11:31:21;;;;;;;5.03;1.40;;;;;;;23.48;nan;101402.75;5082417;28;20412;-69
2022/10/11 11:34:14;;;;;;;4.43;1.55;;;;;;;23.02;nan;101401.88;5039087;28;20470;-69
2022/10/11 11:37:08;;;;;;;3.17;1.40;;;;;;;22.52;nan;101401.56;5079777;28;20121;-69
2022/10/11 11:39:51;;;;;;;2.97;1.20;;;;;;;22.05;nan;101398.88;5057424;28;20063;-69
2022/10/11 11:42:29;;;;;;;5.72;1.63;;;;;;;21.39;nan;101388.81;5063967;28;20061;-68
2022/10/11 11:44:55;;;;;;;7.00;1.42;;;;;;;20.84;nan;101389.78;5066693;28;20037;-69
2022/10/11 11:47:35;;;;;;;4.97;1.60;;;;;;;20.26;nan;101379.22;5082024;28;20092;-68
2022/10/11 11:50:04;;;;;;;4.55;1.52;;;;;;;19.97;nan;101382.91;5061724;28;20040;-68
2022/10/11 11:52:36;;;;;;;5.32;1.48;;;;;;;19.38;nan;101384.78;5068391;28;20051;-68
2022/10/11 11:55:11;;;;;;;3.67;1.48;;;;;;;19.36;nan;101375.25;5084684;28;20115;-68
2022/10/11 11:57:58;;;;;;;4.85;1.48;;;;;;;19.06;nan;101380.66;5087283;28;20039;-70